Time;durP1;ratioP1;P1;durP2;ratioP2;P2;SDS_P1;SDS_P2;PMS_P1;PMS_P2;Temp;Humidity;BMP_temperature;BMP_pressure;BME280_temperature;BME280_humidity;BME280_pressure;Samples;Min_cycle;Max_cycle;Signal;HPM_P1;HPM_P2
2023/07/01 00:02:15;;;;;;;6.25;1.58;;;;;;;;;;5053502;28;20110;-71
2023/07/01 00:04:42;;;;;;;3.95;1.55;;;;;;;;;;5071676;28;20061;-70
2023/07/01 00:07:08;;;;;;;2.08;1.05;;;;;;;;;;5055181;28;20060;-68
2023/07/01 00:09:34;;;;;;;4.80;1.52;;;;;;;;;;5052771;28;20045;-69
2023/07/01 00:12:03;;;;;;;5.50;1.60;;;;;;;;;;5028958;28;20069;-69
2023/07/01 00:14:29;;;;;;;3.67;1.40;;;;;;;;;;5020017;28;20119;-69
2023/07/01 00:16:56;;;;;;;2.38;1.30;;;;;;;;;;5020639;28;20057;-71
2023/07/01 00:19:23;;;;;;;3.67;1.70;;;;;;;;;;5019885;28;20164;-67
2023/07/01 00:21:49;;;;;;;6.35;1.38;;;;;;;;;;5007509;28;20059;-69
2023/07/01 00:24:16;;;;;;;3.53;1.45;;;;;;;;;;5031549;28;20057;-71
2023/07/01 00:26:42;;;;;;;3.33;1.23;;;;;;;;;;5041166;28;20282;-70
2023/07/01 00:29:11;;;;;;;2.65;1.10;;;;;;;;;;5041110;28;20052;-71
2023/07/01 00:31:37;;;;;;;2.88;1.20;;;;;;;;;;5037957;28;20048;-67
2023/07/01 00:34:04;;;;;;;4.25;1.40;;;;;;;;;;5036676;28;20241;-67
2023/07/01 00:36:30;;;;;;;6.45;1.30;;;;;;;;;;5034017;28;20055;-70
2023/07/01 00:38:56;;;;;;;2.67;1.25;;;;;;;;;;5041049;28;20057;-70
2023/07/01 00:41:23;;;;;;;2.53;1.20;;;;;;;;;;5019626;28;20057;-71
2023/07/01 00:43:49;;;;;;;3.92;1.40;;;;;;;;;;5018377;28;20057;-70
2023/07/01 00:46:17;;;;;;;3.35;1.50;;;;;;;;;;5010597;28;20065;-69
2023/07/01 00:48:44;;;;;;;5.63;1.15;;;;;;;;;;5019782;28;20076;-70
2023/07/01 00:51:10;;;;;;;2.65;1.20;;;;;;;;;;5016031;28;20128;-68
2023/07/01 00:53:39;;;;;;;6.38;1.77;;;;;;;;;;5019444;28;20140;-67
2023/07/01 00:56:06;;;;;;;6.55;1.13;;;;;;;;;;5017667;28;20131;-69
2023/07/01 00:58:33;;;;;;;2.13;1.23;;;;;;;;;;5017907;28;20057;-68
2023/07/01 01:01:01;;;;;;;2.90;1.20;;;;;;;;;;5018813;28;20076;-70
2023/07/01 01:03:32;;;;;;;2.43;1.10;;;;;;;;;;5023713;28;20061;-71
2023/07/01 01:06:04;;;;;;;3.05;1.30;;;;;;;;;;5023948;28;20057;-68
2023/07/01 01:08:35;;;;;;;6.20;1.55;;;;;;;;;;5017743;28;20049;-67
2023/07/01 01:11:02;;;;;;;3.38;1.35;;;;;;;;;;5041383;28;20134;-72
2023/07/01 01:13:30;;;;;;;3.55;1.45;;;;;;;;;;5058595;28;20091;-72
2023/07/01 01:15:57;;;;;;;6.18;1.20;;;;;;;;;;5061274;28;20049;-66
2023/07/01 01:18:24;;;;;;;3.83;1.48;;;;;;;;;;5034030;28;20107;-71
2023/07/01 01:20:53;;;;;;;3.90;1.30;;;;;;;;;;5034528;28;20064;-68
2023/07/01 01:23:19;;;;;;;;;;;;;;;;;;5026737;28;20092;-69
2023/07/01 01:25:49;;;;;;;7.72;1.65;;;;;;;;;;5022170;28;19932;-71
2023/07/01 01:28:20;;;;;;;4.35;1.20;;;;;;;;;;5021282;28;20068;-72
2023/07/01 01:30:48;;;;;;;4.97;1.20;;;;;;;;;;5031584;28;20060;-67
2023/07/01 01:33:14;;;;;;;3.35;1.13;;;;;;;;;;5041699;28;20052;-68
2023/07/01 01:35:41;;;;;;;3.63;1.40;;;;;;;;;;5039693;28;20068;-68
2023/07/01 01:38:10;;;;;;;2.42;1.05;;;;;;;;;;5019311;28;20139;-71
2023/07/01 01:40:40;;;;;;;6.63;1.30;;;;;;;;;;5011238;28;20076;-68
2023/07/01 01:43:09;;;;;;;4.70;1.25;;;;;;;;;;5033139;28;20053;-71
2023/07/01 01:45:38;;;;;;;4.65;1.25;;;;;;;;;;5020477;28;20059;-72
2023/07/01 01:48:04;;;;;;;;;;;;;;;;;;5031926;28;20045;-68
2023/07/01 01:50:32;;;;;;;3.65;1.40;;;;;;;;;;5015305;28;19925;-70
2023/07/01 01:53:01;;;;;;;2.47;1.30;;;;;;;;;;5008300;28;20052;-73
2023/07/01 01:55:28;;;;;;;2.55;1.17;;;;;;;;;;5018261;28;20068;-70
2023/07/01 01:57:54;;;;;;;4.85;1.13;;;;;;;;;;5034608;28;20207;-70
2023/07/01 02:00:21;;;;;;;2.65;1.40;;;;;;;;;;5009632;28;20316;-67
2023/07/01 02:02:49;;;;;;;2.92;1.02;;;;;;;;;;5034539;28;20081;-73
2023/07/01 02:05:15;;;;;;;3.40;1.38;;;;;;;;;;5003158;28;20057;-68
2023/07/01 02:07:42;;;;;;;5.90;1.67;;;;;;;;;;5032945;28;20065;-69
2023/07/01 02:10:08;;;;;;;3.78;1.33;;;;;;;;;;5018987;28;20121;-68
2023/07/01 02:12:35;;;;;;;4.18;1.50;;;;;;;;;;5010301;28;20069;-67
2023/07/01 02:15:02;;;;;;;4.80;1.35;;;;;;;;;;5029841;28;20102;-72
2023/07/01 02:17:28;;;;;;;6.43;1.35;;;;;;;;;;5038938;28;20180;-70
2023/07/01 02:19:56;;;;;;;4.10;1.38;;;;;;;;;;5039962;28;20138;-68
2023/07/01 02:22:25;;;;;;;3.90;1.23;;;;;;;;;;5039376;28;20183;-69
2023/07/01 02:24:52;;;;;;;8.05;1.40;;;;;;;;;;5030294;28;21142;-68
2023/07/01 02:27:19;;;;;;;2.25;1.10;;;;;;;;;;5039270;28;20130;-68
2023/07/01 02:29:47;;;;;;;3.75;1.23;;;;;;;;;;5036697;28;20053;-69
2023/07/01 02:32:13;;;;;;;3.90;1.48;;;;;;;;;;5054174;28;20053;-71
2023/07/01 02:34:40;;;;;;;2.50;1.13;;;;;;;;;;5033827;28;20132;-70
2023/07/01 02:37:08;;;;;;;3.53;1.30;;;;;;;;;;5053324;28;20065;-69
2023/07/01 02:39:34;;;;;;;3.90;1.25;;;;;;;;;;5036696;28;20072;-67
2023/07/01 02:42:01;;;;;;;4.18;1.48;;;;;;;;;;5055307;28;20079;-69
2023/07/01 02:44:27;;;;;;;3.35;1.17;;;;;;;;;;5013728;28;20057;-74
2023/07/01 02:46:54;;;;;;;3.42;1.60;;;;;;;;;;5027614;28;21126;-72
2023/07/01 02:49:21;;;;;;;4.07;1.50;;;;;;;;;;5037714;28;20061;-69
2023/07/01 02:51:48;;;;;;;2.85;1.20;;;;;;;;;;5037469;28;20064;-70
2023/07/01 02:54:16;;;;;;;3.47;1.27;;;;;;;;;;5025474;28;20095;-73
2023/07/01 02:56:42;;;;;;;3.47;1.15;;;;;;;;;;5029335;28;20088;-69
2023/07/01 02:59:10;;;;;;;5.07;1.10;;;;;;;;;;5035555;28;20322;-69
2023/07/01 03:01:36;;;;;;;4.20;1.45;;;;;;;;;;5053439;28;20053;-68
2023/07/01 03:04:05;;;;;;;4.97;1.50;;;;;;;;;;5028329;28;20151;-70
2023/07/01 03:06:31;;;;;;;2.90;1.30;;;;;;;;;;5030932;28;20176;-67
2023/07/01 03:08:58;;;;;;;3.35;1.17;;;;;;;;;;5029499;28;20057;-70
2023/07/01 03:11:26;;;;;;;5.40;1.33;;;;;;;;;;5018305;28;20092;-72
2023/07/01 03:13:52;;;;;;;4.45;1.40;;;;;;;;;;4986501;28;20061;-70
2023/07/01 03:16:20;;;;;;;3.47;1.27;;;;;;;;;;5031623;28;20062;-70
2023/07/01 03:18:47;;;;;;;4.25;1.13;;;;;;;;;;5017052;28;20088;-73
2023/07/01 03:21:13;;;;;;;2.10;1.17;;;;;;;;;;5053060;28;20080;-71
2023/07/01 03:23:40;;;;;;;2.70;1.30;;;;;;;;;;5037321;28;20057;-68
2023/07/01 03:26:06;;;;;;;3.70;1.40;;;;;;;;;;5024905;28;20053;-68
2023/07/01 03:28:34;;;;;;;3.53;1.40;;;;;;;;;;5031613;28;20167;-71
2023/07/01 03:31:01;;;;;;;2.63;1.20;;;;;;;;;;5037839;28;20045;-70
2023/07/01 03:33:28;;;;;;;3.55;1.30;;;;;;;;;;5038644;28;20115;-67
2023/07/01 03:35:54;;;;;;;2.03;1.00;;;;;;;;;;5025660;28;20056;-69
2023/07/01 03:38:21;;;;;;;4.38;1.20;;;;;;;;;;5053774;28;20053;-69
2023/07/01 03:40:50;;;;;;;6.00;1.30;;;;;;;;;;5030489;28;20118;-71
2023/07/01 03:43:16;;;;;;;2.97;1.08;;;;;;;;;;5037152;28;20053;-71
2023/07/01 03:45:46;;;;;;;2.63;1.10;;;;;;;;;;5009786;28;20130;-72
2023/07/01 03:48:13;;;;;;;4.93;1.52;;;;;;;;;;5018900;28;20077;-69
2023/07/01 03:50:40;;;;;;;4.70;1.52;;;;;;;;;;5012893;28;20057;-70
2023/07/01 03:53:06;;;;;;;3.45;1.48;;;;;;;;;;5019594;28;20148;-68
2023/07/01 03:55:33;;;;;;;3.10;1.20;;;;;;;;;;5047020;28;20061;-70
2023/07/01 03:58:00;;;;;;;2.97;1.13;;;;;;;;;;5063136;28;20056;-74
2023/07/01 04:00:26;;;;;;;5.15;1.45;;;;;;;;;;5056504;28;20069;-70
2023/07/01 04:02:55;;;;;;;2.83;0.95;;;;;;;;;;5074277;28;20094;-72
2023/07/01 04:05:21;;;;;;;2.50;1.15;;;;;;;;;;5072425;28;20052;-72
2023/07/01 04:07:48;;;;;;;4.00;1.15;;;;;;;;;;5060479;28;20056;-73
2023/07/01 04:10:15;;;;;;;3.20;1.40;;;;;;;;;;5037842;28;20063;-72
2023/07/01 04:12:42;;;;;;;2.40;1.23;;;;;;;;;;5033398;28;20064;-68
2023/07/01 04:15:10;;;;;;;2.78;1.10;;;;;;;;;;5037310;28;20057;-69
2023/07/01 04:17:37;;;;;;;3.63;1.23;;;;;;;;;;5041352;28;20145;-69
2023/07/01 04:20:07;;;;;;;4.15;1.30;;;;;;;;;;5056410;28;20053;-71
2023/07/01 04:22:33;;;;;;;3.63;1.23;;;;;;;;;;5038993;28;20061;-69
2023/07/01 04:25:04;;;;;;;4.25;1.60;;;;;;;;;;5028513;28;20061;-72
2023/07/01 04:27:31;;;;;;;4.45;1.30;;;;;;;;;;5048493;28;20092;-67
2023/07/01 04:29:57;;;;;;;3.97;1.30;;;;;;;;;;5039089;28;20045;-70
2023/07/01 04:32:24;;;;;;;4.40;1.40;;;;;;;;;;5057810;28;20080;-71
2023/07/01 04:34:51;;;;;;;3.83;1.50;;;;;;;;;;5052053;28;20056;-71
2023/07/01 04:37:19;;;;;;;3.28;1.38;;;;;;;;;;5046511;28;20048;-70
2023/07/01 04:39:45;;;;;;;1.42;1.00;;;;;;;;;;5041224;28;20057;-70
2023/07/01 04:42:12;;;;;;;3.22;1.33;;;;;;;;;;5041990;28;20088;-70
2023/07/01 04:44:38;;;;;;;3.50;1.17;;;;;;;;;;5032488;28;20107;-69
2023/07/01 04:47:05;;;;;;;3.38;1.40;;;;;;;;;;5041362;28;20060;-69
2023/07/01 04:49:31;;;;;;;1.88;1.20;;;;;;;;;;5038823;28;20262;-71
2023/07/01 04:51:57;;;;;;;5.20;1.45;;;;;;;;;;5057237;28;20095;-71
2023/07/01 04:54:26;;;;;;;2.97;1.20;;;;;;;;;;5032554;28;20059;-71
2023/07/01 04:56:52;;;;;;;2.42;1.20;;;;;;;;;;5033446;28;20110;-71
2023/07/01 04:59:19;;;;;;;2.85;1.10;;;;;;;;;;5039178;28;20065;-69
2023/07/01 05:01:45;;;;;;;3.30;1.25;;;;;;;;;;5055013;28;20084;-68
2023/07/01 05:04:12;;;;;;;2.78;1.15;;;;;;;;;;5035336;28;20065;-72
2023/07/01 05:06:38;;;;;;;1.90;1.05;;;;;;;;;;5028061;28;20140;-68
2023/07/01 05:09:06;;;;;;;3.50;1.38;;;;;;;;;;5025800;28;20079;-70
2023/07/01 05:11:33;;;;;;;4.60;1.30;;;;;;;;;;5038235;28;20056;-69
2023/07/01 05:14:00;;;;;;;5.00;1.75;;;;;;;;;;5039699;28;20045;-72
2023/07/01 05:16:26;;;;;;;3.08;1.17;;;;;;;;;;5041103;28;20123;-67
2023/07/01 05:18:54;;;;;;;2.67;1.15;;;;;;;;;;5051935;28;21158;-70
2023/07/01 05:21:21;;;;;;;2.42;1.30;;;;;;;;;;5038322;28;20079;-71
2023/07/01 05:23:47;;;;;;;2.28;1.20;;;;;;;;;;5038660;28;20052;-71
2023/07/01 05:26:14;;;;;;;3.72;1.17;;;;;;;;;;5010168;28;20056;-71
2023/07/01 05:28:44;;;;;;;5.40;1.20;;;;;;;;;;5033066;28;20057;-72
2023/07/01 05:31:10;;;;;;;3.42;1.33;;;;;;;;;;5047021;28;20056;-68
2023/07/01 05:33:37;;;;;;;1.80;1.10;;;;;;;;;;5062178;28;20060;-74
2023/07/01 05:36:03;;;;;;;2.95;1.17;;;;;;;;;;5060412;28;20140;-67
2023/07/01 05:38:30;;;;;;;4.97;1.27;;;;;;;;;;5034372;28;20056;-73
2023/07/01 05:40:56;;;;;;;3.83;1.23;;;;;;;;;;5038841;28;20052;-67
2023/07/01 05:43:23;;;;;;;1.67;0.85;;;;;;;;;;5054913;28;20302;-70
2023/07/01 05:45:51;;;;;;;2.22;1.00;;;;;;;;;;5049725;28;20057;-68
2023/07/01 05:48:17;;;;;;;1.92;1.00;;;;;;;;;;5061785;28;20056;-69
2023/07/01 05:50:44;;;;;;;4.55;1.17;;;;;;;;;;5053283;28;20368;-70
2023/07/01 05:53:12;;;;;;;2.10;0.98;;;;;;;;;;5060890;28;20071;-70
2023/07/01 05:55:38;;;;;;;2.10;1.20;;;;;;;;;;5072629;28;20110;-68
2023/07/01 05:58:06;;;;;;;3.72;1.10;;;;;;;;;;5060073;28;20360;-72
2023/07/01 06:00:33;;;;;;;2.28;1.13;;;;;;;;;;5051125;28;20114;-69
2023/07/01 06:03:00;;;;;;;2.92;1.15;;;;;;;;;;5057006;28;20102;-68
2023/07/01 06:05:27;;;;;;;2.13;1.00;;;;;;;;;;5024600;28;20107;-71
2023/07/01 06:07:53;;;;;;;4.63;1.20;;;;;;;;;;5036210;28;20060;-70
2023/07/01 06:10:20;;;;;;;2.38;1.00;;;;;;;;;;5033435;28;20084;-67
2023/07/01 06:12:46;;;;;;;2.55;1.10;;;;;;;;;;5000709;28;20062;-68
2023/07/01 06:15:13;;;;;;;1.55;1.05;;;;;;;;;;5007127;28;20203;-71
2023/07/01 06:17:39;;;;;;;1.65;1.00;;;;;;;;;;5017354;28;20092;-67
2023/07/01 06:20:10;;;;;;;4.28;1.30;;;;;;;;;;5040975;28;20080;-68
2023/07/01 06:22:37;;;;;;;2.90;1.27;;;;;;;;;;5036476;28;20057;-72
2023/07/01 06:25:04;;;;;;;1.88;1.08;;;;;;;;;;5045586;28;20072;-71
2023/07/01 06:27:30;;;;;;;3.15;1.15;;;;;;;;;;5039259;28;20065;-69
2023/07/01 06:29:57;;;;;;;1.70;0.88;;;;;;;;;;5038427;28;20048;-71
2023/07/01 06:32:24;;;;;;;1.27;0.95;;;;;;;;;;5033682;28;20061;-71
2023/07/01 06:34:53;;;;;;;1.40;0.98;;;;;;;;;;5006698;28;20119;-67
2023/07/01 06:37:24;;;;;;;2.35;1.00;;;;;;;;;;5032641;28;20055;-70
2023/07/01 06:39:50;;;;;;;1.58;0.90;;;;;;;;;;5018621;28;20088;-70
2023/07/01 06:42:17;;;;;;;1.63;1.00;;;;;;;;;;5019173;28;20065;-71
2023/07/01 06:44:43;;;;;;;2.33;1.00;;;;;;;;;;5034778;28;20056;-68
2023/07/01 06:47:10;;;;;;;1.25;0.95;;;;;;;;;;5037648;28;20061;-69
2023/07/01 06:49:36;;;;;;;5.32;1.05;;;;;;;;;;5037982;28;20122;-70
2023/07/01 06:52:03;;;;;;;3.08;1.20;;;;;;;;;;5038563;28;20086;-66
2023/07/01 06:54:33;;;;;;;2.35;1.10;;;;;;;;;;5049039;28;20061;-71
2023/07/01 06:57:00;;;;;;;3.13;1.08;;;;;;;;;;5042279;28;20152;-68
2023/07/01 06:59:26;;;;;;;2.03;1.02;;;;;;;;;;5053764;28;20056;-70
2023/07/01 07:01:53;;;;;;;2.33;1.10;;;;;;;;;;5053951;28;20048;-72
2023/07/01 07:04:19;;;;;;;3.13;1.05;;;;;;;;;;5017733;28;20061;-69
2023/07/01 07:06:46;;;;;;;1.52;1.10;;;;;;;;;;5031775;28;20061;-68
2023/07/01 07:09:12;;;;;;;1.13;0.90;;;;;;;;;;5036540;28;20115;-68
2023/07/01 07:11:41;;;;;;;1.52;0.95;;;;;;;;;;5035981;28;20063;-69
2023/07/01 07:14:07;;;;;;;;;;;;;;;;;;5021904;28;20056;-68
2023/07/01 07:16:34;;;;;;;3.65;1.02;;;;;;;;;;4992687;28;20002;-69
2023/07/01 07:19:00;;;;;;;1.50;1.00;;;;;;;;;;5009817;28;20057;-68
2023/07/01 07:21:27;;;;;;;2.67;1.45;;;;;;;;;;5017618;28;20057;-70
2023/07/01 07:23:53;;;;;;;2.58;1.23;;;;;;;;;;5034722;28;20048;-71
2023/07/01 07:26:20;;;;;;;1.55;1.00;;;;;;;;;;5034540;28;20132;-69
2023/07/01 07:28:47;;;;;;;2.38;1.00;;;;;;;;;;5030658;28;20085;-68
2023/07/01 07:31:14;;;;;;;3.60;1.17;;;;;;;;;;5013685;28;20062;-70
2023/07/01 07:33:43;;;;;;;1.80;1.00;;;;;;;;;;5020100;28;20303;-70
2023/07/01 07:36:09;;;;;;;1.33;0.90;;;;;;;;;;5024261;28;20057;-69
2023/07/01 07:38:36;;;;;;;2.60;0.90;;;;;;;;;;5016667;28;20061;-70
2023/07/01 07:41:03;;;;;;;2.03;1.13;;;;;;;;;;5038217;28;20111;-69
2023/07/01 07:43:31;;;;;;;1.80;1.00;;;;;;;;;;5024312;28;20140;-71
2023/07/01 07:45:59;;;;;;;1.30;0.95;;;;;;;;;;5004228;28;20056;-70
2023/07/01 07:48:25;;;;;;;1.33;1.00;;;;;;;;;;5017991;28;20131;-71
2023/07/01 07:50:52;;;;;;;1.25;0.90;;;;;;;;;;5019156;28;20284;-69
2023/07/01 07:53:18;;;;;;;2.03;0.90;;;;;;;;;;5021855;28;20085;-68
2023/07/01 07:55:45;;;;;;;1.00;0.90;;;;;;;;;;4987175;28;20168;-68
2023/07/01 07:58:11;;;;;;;0.73;0.70;;;;;;;;;;5005144;28;20062;-72
2023/07/01 08:00:38;;;;;;;1.58;0.80;;;;;;;;;;4998519;28;20050;-68
2023/07/01 08:03:06;;;;;;;1.25;0.95;;;;;;;;;;5003194;28;20054;-71
2023/07/01 08:05:32;;;;;;;3.88;1.08;;;;;;;;;;5001569;28;20061;-68
2023/07/01 08:07:59;;;;;;;2.40;1.10;;;;;;;;;;5022509;28;20110;-68
2023/07/01 08:10:25;;;;;;;5.80;2.53;;;;;;;;;;5021743;28;20073;-67
2023/07/01 08:12:52;;;;;;;2.38;1.08;;;;;;;;;;5014347;28;20057;-67
2023/07/01 08:15:18;;;;;;;1.63;0.90;;;;;;;;;;5026249;28;20113;-65
2023/07/01 08:17:45;;;;;;;1.63;1.02;;;;;;;;;;5042156;28;20061;-69
2023/07/01 08:20:13;;;;;;;1.60;0.98;;;;;;;;;;5039303;28;20147;-68
2023/07/01 08:22:40;;;;;;;1.80;1.08;;;;;;;;;;5048002;28;20057;-66
2023/07/01 08:25:07;;;;;;;1.25;0.90;;;;;;;;;;5029538;28;20147;-67
2023/07/01 08:27:33;;;;;;;4.50;1.75;;;;;;;;;;5019146;28;20056;-69
2023/07/01 08:30:00;;;;;;;1.48;1.00;;;;;;;;;;5019469;28;20142;-67
2023/07/01 08:32:26;;;;;;;1.23;1.00;;;;;;;;;;5020622;28;20065;-68
2023/07/01 08:34:53;;;;;;;1.67;0.90;;;;;;;;;;5032480;28;20114;-67
2023/07/01 08:37:21;;;;;;;1.75;1.00;;;;;;;;;;5039019;28;20045;-66
2023/07/01 08:39:47;;;;;;;2.08;0.90;;;;;;;;;;5040383;28;20107;-66
2023/07/01 08:42:17;;;;;;;1.85;1.15;;;;;;;;;;5039717;28;20072;-67
2023/07/01 08:44:45;;;;;;;8.50;4.10;;;;;;;;;;5029967;28;20162;-65
2023/07/01 08:47:13;;;;;;;2.05;1.05;;;;;;;;;;5059631;28;20045;-65
2023/07/01 08:49:40;;;;;;;2.00;1.03;;;;;;;;;;5037531;28;20049;-66
2023/07/01 08:52:11;;;;;;;1.60;1.00;;;;;;;;;;5039986;28;20141;-68
2023/07/01 08:54:42;;;;;;;2.25;1.08;;;;;;;;;;5028570;28;20084;-67
2023/07/01 08:57:08;;;;;;;1.17;0.90;;;;;;;;;;5040027;28;20060;-69
2023/07/01 08:59:35;;;;;;;1.20;0.90;;;;;;;;;;5039459;28;20065;-69
2023/07/01 09:02:02;;;;;;;1.38;0.90;;;;;;;;;;5045445;28;20053;-67
2023/07/01 09:04:28;;;;;;;1.13;0.95;;;;;;;;;;5069913;28;20057;-69
2023/07/01 09:06:57;;;;;;;2.03;1.17;;;;;;;;;;5057780;28;20123;-68
2023/07/01 09:09:24;;;;;;;2.22;1.00;;;;;;;;;;5065843;28;20057;-68
2023/07/01 09:11:52;;;;;;;3.33;1.08;;;;;;;;;;5055255;28;20048;-65
2023/07/01 09:14:19;;;;;;;3.10;0.90;;;;;;;;;;5051763;28;20045;-68
2023/07/01 09:16:45;;;;;;;2.58;1.45;;;;;;;;;;5032696;28;20060;-68
2023/07/01 09:19:16;;;;;;;2.97;1.27;;;;;;;;;;5060449;28;20049;-68
2023/07/01 09:21:46;;;;;;;2.10;0.90;;;;;;;;;;5037830;28;20114;-68
2023/07/01 09:24:12;;;;;;;1.33;1.00;;;;;;;;;;5052523;28;20088;-69
2023/07/01 09:26:39;;;;;;;1.98;1.02;;;;;;;;;;5034646;28;20064;-66
2023/07/01 09:29:11;;;;;;;1.52;1.00;;;;;;;;;;5040166;28;20061;-69
2023/07/01 09:31:44;;;;;;;7.72;3.50;;;;;;;;;;5051875;28;20065;-66
2023/07/01 09:34:10;;;;;;;2.78;1.33;;;;;;;;;;5036244;28;20063;-68
2023/07/01 09:36:37;;;;;;;2.92;1.00;;;;;;;;;;5030299;28;20065;-68
2023/07/01 09:39:05;;;;;;;3.17;1.67;;;;;;;;;;5034810;28;20068;-65
2023/07/01 09:41:31;;;;;;;3.28;1.77;;;;;;;;;;5034898;28;20057;-68
2023/07/01 09:43:59;;;;;;;1.48;1.02;;;;;;;;;;5020334;28;20069;-70
2023/07/01 09:46:41;;;;;;;2.28;1.05;;;;;;;;;;5028895;28;20148;-67
2023/07/01 09:49:08;;;;;;;2.83;1.60;;;;;;;;;;5038148;28;20118;-65
2023/07/01 09:51:45;;;;;;;1.95;1.23;;;;;;;;;;5039635;28;20061;-65
2023/07/01 09:54:23;;;;;;;3.20;1.90;;;;;;;;;;5051797;28;20086;-65
2023/07/01 09:56:50;;;;;;;1.00;0.93;;;;;;;;;;5033048;28;20044;-66
2023/07/01 09:59:16;;;;;;;2.20;1.50;;;;;;;;;;5038947;28;20134;-67
2023/07/01 10:01:45;;;;;;;2.10;1.10;;;;;;;;;;5042514;28;20091;-67
2023/07/01 10:04:12;;;;;;;2.22;1.17;;;;;;;;;;5028444;28;20092;-68
2023/07/01 10:06:38;;;;;;;3.25;1.60;;;;;;;;;;5036429;28;20056;-65
2023/07/01 10:09:05;;;;;;;5.63;2.95;;;;;;;;;;5037787;28;20052;-66
2023/07/01 10:11:32;;;;;;;3.42;1.70;;;;;;;;;;5038646;28;20060;-68
2023/07/01 10:13:59;;;;;;;4.10;2.50;;;;;;;;;;5040904;28;20148;-68
2023/07/01 10:16:26;;;;;;;4.03;1.77;;;;;;;;;;5034684;28;20113;-68
2023/07/01 10:18:54;;;;;;;3.55;1.30;;;;;;;;;;5034435;28;20978;-68
2023/07/01 10:21:28;;;;;;;4.85;1.70;;;;;;;;;;5042838;28;20060;-69
2023/07/01 10:23:55;;;;;;;2.35;1.60;;;;;;;;;;5040232;28;20060;-69
2023/07/01 10:26:36;;;;;;;2.17;1.40;;;;;;;;;;4992625;28;20076;-64
2023/07/01 10:29:17;;;;;;;6.72;3.58;;;;;;;;;;5034372;28;20128;-69
2023/07/01 10:32:11;;;;;;;6.60;3.13;;;;;;;;;;5031571;28;20135;-65
2023/07/01 10:34:59;;;;;;;5.63;2.60;;;;;;;;;;5012206;28;20069;-68
2023/07/01 10:37:27;;;;;;;3.88;1.98;;;;;;;;;;5052547;28;20056;-69
2023/07/01 10:39:55;;;;;;;3.75;1.83;;;;;;;;;;5038510;28;20063;-69
2023/07/01 10:42:31;;;;;;;2.97;1.73;;;;;;;;;;5031762;28;20049;-67
2023/07/01 10:45:12;;;;;;;3.55;1.88;;;;;;;;;;5015508;28;20061;-67
2023/07/01 10:47:42;;;;;;;2.75;1.75;;;;;;;;;;5023389;28;20053;-67
2023/07/01 10:50:10;;;;;;;5.32;1.90;;;;;;;;;;5018761;28;20057;-67
2023/07/01 10:52:55;;;;;;;4.20;2.22;;;;;;;;;;5011610;28;20065;-70
2023/07/01 10:55:40;;;;;;;3.20;1.80;;;;;;;;;;4986043;28;20061;-71
2023/07/01 10:58:30;;;;;;;3.75;1.90;;;;;;;;;;5007399;28;20129;-71
2023/07/01 11:00:59;;;;;;;3.47;1.77;;;;;;;;;;4992490;28;20053;-69
2023/07/01 11:03:44;;;;;;;3.38;1.67;;;;;;;;;;5036311;28;20131;-70
2023/07/01 11:06:14;;;;;;;3.58;2.00;;;;;;;;;;5019579;28;20103;-66
2023/07/01 11:08:44;;;;;;;3.42;1.90;;;;;;;;;;5015417;28;20049;-68
2023/07/01 11:11:12;;;;;;;4.22;2.25;;;;;;;;;;5020984;28;20072;-67
2023/07/01 11:13:39;;;;;;;3.67;1.90;;;;;;;;;;5033630;28;20049;-66
2023/07/01 11:16:12;;;;;;;3.65;1.92;;;;;;;;;;5019110;28;20083;-68
2023/07/01 11:18:41;;;;;;;3.67;1.50;;;;;;;;;;5030701;28;20060;-70
2023/07/01 11:21:10;;;;;;;3.72;1.70;;;;;;;;;;5037727;28;20064;-66
2023/07/01 11:23:36;;;;;;;;;;;;;;;;;;5052666;28;20052;-64
2023/07/01 11:26:03;;;;;;;4.18;2.35;;;;;;;;;;5026303;28;19960;-67
2023/07/01 11:28:35;;;;;;;3.53;2.03;;;;;;;;;;5046929;28;20130;-68
2023/07/01 11:31:11;;;;;;;3.78;1.98;;;;;;;;;;5038832;28;20182;-64
2023/07/01 11:33:43;;;;;;;3.30;1.95;;;;;;;;;;5053579;28;20179;-66
2023/07/01 11:36:09;;;;;;;3.25;1.80;;;;;;;;;;4999870;28;20106;-66
2023/07/01 11:38:37;;;;;;;3.47;1.67;;;;;;;;;;5027217;28;20115;-66
2023/07/01 11:43:54;;;;;;;9.63;4.38;;;;;;;;;;5019889;28;20044;-65
2023/07/01 11:46:30;;;;;;;5.40;2.85;;;;;;;;;;4997147;28;20057;-66
2023/07/01 11:49:00;;;;;;;6.40;3.17;;;;;;;;;;5044215;28;20057;-66
2023/07/01 11:51:36;;;;;;;6.38;3.00;;;;;;;;;;5025796;28;20080;-67
2023/07/01 11:54:08;;;;;;;6.38;3.10;;;;;;;;;;5027214;28;20053;-66
2023/07/01 11:56:35;;;;;;;4.28;2.50;;;;;;;;;;5016766;28;20048;-67
2023/07/01 11:59:04;;;;;;;4.35;2.60;;;;;;;;;;5054005;28;20049;-66
2023/07/01 12:01:35;;;;;;;5.35;2.58;;;;;;;;;;5039670;28;20053;-66
2023/07/01 12:04:14;;;;;;;4.35;2.38;;;;;;;;;;5036767;28;20122;-66
2023/07/01 12:06:43;;;;;;;3.17;1.70;;;;;;;;;;4989958;28;20148;-70
2023/07/01 12:09:18;;;;;;;4.07;2.17;;;;;;;;;;5037823;28;20088;-68
2023/07/01 12:11:47;;;;;;;2.65;1.63;;;;;;;;;;5039809;28;20067;-68
2023/07/01 12:14:19;;;;;;;2.95;1.80;;;;;;;;;;5019890;28;20076;-67
2023/07/01 12:16:49;;;;;;;3.00;1.50;;;;;;;;;;4971893;28;20068;-68
2023/07/01 12:19:18;;;;;;;2.50;1.50;;;;;;;;;;5023138;28;20069;-70
2023/07/01 12:21:45;;;;;;;3.08;1.70;;;;;;;;;;5022208;28;20061;-66
2023/07/01 12:24:19;;;;;;;3.53;1.80;;;;;;;;;;5019089;28;20064;-69
2023/07/01 12:26:48;;;;;;;3.25;1.73;;;;;;;;;;4957660;28;20273;-68
2023/07/01 12:29:21;;;;;;;3.25;1.85;;;;;;;;;;4999900;28;20058;-68
2023/07/01 12:31:48;;;;;;;3.20;1.90;;;;;;;;;;4983906;28;20116;-67
2023/07/01 12:34:31;;;;;;;3.45;1.90;;;;;;;;;;5006686;28;20065;-68
2023/07/01 12:36:59;;;;;;;4.50;1.98;;;;;;;;;;4999514;28;20092;-67
2023/07/01 12:39:27;;;;;;;7.00;3.58;;;;;;;;;;5022699;28;20053;-69
2023/07/01 12:41:55;;;;;;;4.25;2.35;;;;;;;;;;5021469;28;20064;-69
2023/07/01 12:44:25;;;;;;;5.28;2.53;;;;;;;;;;5020512;28;20053;-69
2023/07/01 12:46:52;;;;;;;6.88;2.58;;;;;;;;;;5021541;28;20144;-67
2023/07/01 12:49:22;;;;;;;7.13;3.13;;;;;;;;;;5020014;28;20335;-67
2023/07/01 12:51:48;;;;;;;11.02;6.90;;;;;;;;;;5035592;28;20069;-67
2023/07/01 12:54:15;;;;;;;8.63;4.32;;;;;;;;;;5021295;28;20081;-66
2023/07/01 12:56:42;;;;;;;5.80;2.88;;;;;;;;;;5011670;28;20045;-67
2023/07/01 12:59:08;;;;;;;7.53;3.67;;;;;;;;;;5034921;28;20144;-67
2023/07/01 13:01:36;;;;;;;5.85;3.00;;;;;;;;;;5020578;28;20294;-69
2023/07/01 13:04:04;;;;;;;5.35;2.35;;;;;;;;;;5020256;28;20053;-67
2023/07/01 13:06:38;;;;;;;4.53;2.42;;;;;;;;;;4996221;28;20058;-66
2023/07/01 13:09:13;;;;;;;4.32;2.35;;;;;;;;;;5029787;28;20052;-69
2023/07/01 13:11:47;;;;;;;9.13;2.60;;;;;;;;;;5001404;28;20067;-69
2023/07/01 13:14:23;;;;;;;4.00;2.20;;;;;;;;;;5025465;28;20057;-66
2023/07/01 13:16:52;;;;;;;4.45;2.30;;;;;;;;;;5014399;28;20057;-66
2023/07/01 13:19:20;;;;;;;5.03;2.63;;;;;;;;;;5020589;28;20065;-68
2023/07/01 13:21:52;;;;;;;6.75;2.72;;;;;;;;;;5036442;28;20176;-65
2023/07/01 13:24:21;;;;;;;4.82;2.55;;;;;;;;;;5021554;28;20058;-67
2023/07/01 13:26:53;;;;;;;5.80;2.60;;;;;;;;;;5024385;28;20126;-66
2023/07/01 13:29:25;;;;;;;5.78;2.63;;;;;;;;;;5038319;28;20048;-68
2023/07/01 13:31:56;;;;;;;5.57;2.50;;;;;;;;;;5025776;28;20057;-68
2023/07/01 13:34:28;;;;;;;5.18;2.60;;;;;;;;;;5020704;28;20072;-65
2023/07/01 13:36:57;;;;;;;7.72;2.90;;;;;;;;;;4995202;28;20156;-67
2023/07/01 13:39:32;;;;;;;6.78;2.50;;;;;;;;;;4999775;28;20180;-68
2023/07/01 13:42:00;;;;;;;4.95;2.60;;;;;;;;;;5040240;28;20111;-69
2023/07/01 13:44:26;;;;;;;5.60;2.67;;;;;;;;;;5036678;28;20113;-68
2023/07/01 13:46:54;;;;;;;7.60;3.90;;;;;;;;;;5018136;28;20114;-67
2023/07/01 13:49:22;;;;;;;9.05;4.55;;;;;;;;;;5037204;28;20068;-67
2023/07/01 13:51:48;;;;;;;5.90;2.75;;;;;;;;;;5039431;28;20064;-70
2023/07/01 13:54:17;;;;;;;5.35;2.80;;;;;;;;;;5039220;28;20057;-70
2023/07/01 13:56:45;;;;;;;8.05;3.50;;;;;;;;;;5015764;28;20053;-69
2023/07/01 13:59:13;;;;;;;9.17;3.60;;;;;;;;;;5037763;28;20060;-69
2023/07/01 14:01:40;;;;;;;7.55;3.28;;;;;;;;;;5040658;28;20343;-68
2023/07/01 14:04:08;;;;;;;6.07;3.28;;;;;;;;;;5039710;28;20065;-69
2023/07/01 14:06:38;;;;;;;8.07;2.97;;;;;;;;;;5047414;28;20098;-69
2023/07/01 14:09:06;;;;;;;5.13;2.60;;;;;;;;;;5039282;28;20048;-67
2023/07/01 14:11:33;;;;;;;7.35;2.70;;;;;;;;;;5034024;28;20061;-68
2023/07/01 14:14:06;;;;;;;5.15;2.47;;;;;;;;;;5018163;28;20136;-68
2023/07/01 14:16:33;;;;;;;5.93;2.97;;;;;;;;;;5011226;28;20068;-69
2023/07/01 14:18:59;;;;;;;5.15;2.42;;;;;;;;;;5033642;28;20079;-67
2023/07/01 14:21:31;;;;;;;4.53;2.15;;;;;;;;;;5054431;28;20079;-69
2023/07/01 14:24:04;;;;;;;5.78;2.00;;;;;;;;;;5053919;28;20114;-71
2023/07/01 14:26:39;;;;;;;5.32;2.28;;;;;;;;;;5028264;28;20060;-70
2023/07/01 14:29:06;;;;;;;3.60;1.88;;;;;;;;;;5016744;28;20049;-66
2023/07/01 14:31:37;;;;;;;4.03;2.08;;;;;;;;;;5018388;28;20119;-67
2023/07/01 14:34:08;;;;;;;4.93;1.98;;;;;;;;;;5027832;28;20053;-66
2023/07/01 14:36:40;;;;;;;5.70;2.03;;;;;;;;;;5014626;28;20049;-67
2023/07/01 14:39:07;;;;;;;5.38;1.90;;;;;;;;;;5037035;28;20060;-69
2023/07/01 14:41:34;;;;;;;4.78;2.15;;;;;;;;;;5041852;28;20049;-67
2023/07/01 14:44:02;;;;;;;3.73;1.87;;;;;;;;;;5053446;28;20100;-68
2023/07/01 14:46:31;;;;;;;4.25;1.67;;;;;;;;;;5032855;28;20060;-66
2023/07/01 14:48:58;;;;;;;4.50;1.90;;;;;;;;;;5036801;28;20131;-68
2023/07/01 14:51:27;;;;;;;5.20;1.73;;;;;;;;;;5033818;28;20049;-69
2023/07/01 14:53:55;;;;;;;7.53;2.35;;;;;;;;;;5019756;28;20057;-65